createdAt,value
2022-08-17T00:02:18.102Z,70.54
2022-08-17T00:05:33.924Z,71.47
2022-08-17T00:08:40.052Z,70.81
2022-08-17T00:11:43.887Z,70.75
2022-08-17T00:15:10.359Z,71.58
2022-08-17T00:18:56.716Z,71.14
2022-08-17T00:22:14.780Z,70.81
2022-08-17T00:25:00.572Z,71.62
2022-08-17T00:28:06.193Z,71.62
2022-08-17T00:31:10.319Z,70.68
2022-08-17T00:34:12.469Z,71.44
2022-08-17T00:37:14.572Z,71.56
2022-08-17T00:40:19.819Z,70.77
2022-08-17T00:43:45.775Z,70.63
2022-08-17T00:46:48.160Z,70.88
2022-08-17T00:49:50.392Z,70.71
2022-08-17T00:52:56.457Z,71.04
2022-08-17T00:56:01.804Z,70.20
2022-08-17T00:59:07.811Z,71.49
2022-08-17T01:02:12.648Z,71.23
2022-08-17T01:05:23.601Z,71.53
2022-08-17T01:08:29.634Z,71.85
2022-08-17T01:11:33.138Z,71.46
2022-08-17T01:14:35.322Z,71.55
2022-08-17T01:17:37.483Z,70.74
2022-08-17T01:20:48.211Z,71.29
2022-08-17T01:23:50.939Z,71.30
2022-08-17T01:26:53.111Z,70.30
2022-08-17T01:30:02.810Z,70.80
2022-08-17T01:33:05.793Z,70.44
2022-08-17T01:36:08.563Z,71.27
2022-08-17T01:39:24.657Z,70.90
2022-08-17T01:42:26.619Z,70.24
2022-08-17T01:45:33.152Z,70.25
2022-08-17T01:48:39.105Z,71.23
2022-08-17T01:51:41.851Z,71.30
2022-08-17T01:54:47.203Z,70.46
2022-08-17T01:57:49.233Z,70.94
2022-08-17T02:01:00.677Z,70.46
2022-08-17T02:04:05.214Z,70.06
2022-08-17T02:07:07.223Z,70.48
2022-08-17T02:10:18.989Z,71.00
2022-08-17T02:13:22.704Z,71.07
2022-08-17T02:16:24.936Z,71.19
2022-08-17T02:19:27.006Z,71.05
2022-08-17T02:22:29.230Z,70.31
2022-08-17T02:25:33.734Z,70.43
2022-08-17T02:28:35.916Z,70.82
2022-08-17T02:31:38.039Z,70.03
2022-08-17T02:34:40.036Z,71.15
2022-08-17T02:37:44.771Z,71.10
2022-08-17T02:40:53.817Z,70.45
2022-08-17T02:43:55.872Z,70.07
2022-08-17T02:46:57.936Z,71.39
2022-08-17T02:50:00.029Z,69.97
2022-08-17T02:53:02.916Z,70.32
2022-08-17T02:56:07.131Z,70.33
2022-08-17T02:59:09.303Z,70.58
2022-08-17T03:02:12.213Z,70.25
2022-08-17T03:05:17.076Z,70.04
2022-08-17T03:08:20.121Z,70.40
2022-08-17T03:11:22.514Z,71.03
2022-08-17T03:14:26.183Z,70.97
2022-08-17T03:17:28.771Z,70.08
2022-08-17T03:20:32.777Z,71.23
2022-08-17T03:23:41.167Z,70.12
2022-08-17T03:26:44.184Z,70.12
2022-08-17T03:29:46.325Z,69.90
2022-08-17T03:32:50.864Z,70.91
2022-08-17T03:35:52.933Z,70.72
2022-08-17T03:38:54.991Z,70.24
2022-08-17T03:42:32.278Z,70.79
2022-08-17T03:45:54.672Z,70.00
2022-08-17T03:49:15.536Z,70.52
2022-08-17T03:52:36.206Z,70.96
2022-08-17T03:55:58.091Z,70.75
2022-08-17T03:59:00.140Z,69.73
2022-08-17T04:02:24.540Z,70.78
2022-08-17T04:05:26.649Z,70.81
2022-08-17T04:08:29.721Z,70.77
2022-08-17T04:11:32.436Z,70.78
2022-08-17T04:14:52.254Z,70.20
2022-08-17T04:17:57.028Z,69.90
2022-08-17T04:20:59.272Z,71.07
2022-08-17T04:24:02.881Z,70.32
2022-08-17T04:27:05.095Z,71.22
2022-08-17T04:30:07.849Z,70.43
2022-08-17T04:33:14.051Z,69.93
2022-08-17T04:36:16.539Z,70.10
2022-08-17T04:39:18.506Z,70.63
2022-08-17T04:42:20.558Z,70.70
2022-08-17T04:45:22.676Z,69.92
2022-08-17T04:48:29.647Z,69.94
2022-08-17T04:51:45.506Z,70.41
2022-08-17T04:54:57.008Z,70.97
2022-08-17T04:57:58.999Z,71.52
2022-08-17T05:01:01.764Z,70.98
2022-08-17T05:04:21.365Z,70.75
2022-08-17T05:07:33.208Z,70.94
2022-08-17T05:10:39.119Z,71.38
2022-08-17T05:13:50.387Z,70.96
2022-08-17T05:16:52.519Z,71.35
2022-08-17T05:19:54.765Z,71.88
2022-08-17T05:23:04.701Z,71.97
2022-08-17T05:26:07.897Z,71.08
2022-08-17T05:29:13.863Z,70.45
2022-08-17T05:32:38.734Z,71.05
2022-08-17T05:35:44.140Z,70.08
2022-08-17T05:38:46.202Z,71.25
2022-08-17T05:41:48.462Z,70.79
2022-08-17T05:44:50.540Z,71.18
2022-08-17T05:47:52.534Z,69.91
2022-08-17T05:51:09.606Z,69.61
2022-08-17T05:54:33.530Z,71.14
2022-08-17T05:58:08.829Z,70.33
2022-08-17T06:01:33.621Z,71.12
2022-08-17T06:05:20.129Z,71.18
2022-08-17T06:08:48.391Z,70.68
2022-08-17T06:12:03.751Z,71.89
2022-08-17T06:15:14.523Z,71.38
2022-08-17T06:18:19.221Z,70.93
2022-08-17T06:21:30.534Z,71.86
2022-08-17T06:24:37.004Z,72.26
2022-08-17T06:27:53.699Z,71.72
2022-08-17T06:31:03.866Z,71.76
2022-08-17T06:34:10.744Z,71.27
2022-08-17T06:37:34.192Z,70.96
2022-08-17T06:40:45.720Z,71.06
2022-08-17T06:43:56.859Z,71.21
2022-08-17T06:47:09.102Z,70.83
2022-08-17T06:50:17.237Z,71.33
2022-08-17T06:53:28.455Z,71.15
2022-08-17T06:56:54.446Z,70.76
2022-08-17T07:00:02.386Z,71.28
2022-08-17T07:03:10.608Z,71.01
2022-08-17T07:06:22.407Z,70.18
2022-08-17T07:09:35.941Z,70.88
2022-08-17T07:12:43.429Z,70.87
2022-08-17T07:15:51.794Z,69.87
2022-08-17T07:18:59.075Z,69.59
2022-08-17T07:22:55.251Z,69.23
2022-08-17T07:26:08.226Z,69.99
2022-08-17T07:29:14.206Z,69.32
2022-08-17T07:32:20.262Z,69.46
2022-08-17T07:35:40.684Z,69.87
2022-08-17T07:38:57.989Z,69.98
2022-08-17T07:42:05.112Z,68.63
2022-08-17T07:45:28.228Z,69.40
2022-08-17T07:48:36.145Z,69.45
2022-08-17T07:51:41.125Z,69.92
2022-08-17T07:54:43.257Z,69.34
2022-08-17T07:57:56.193Z,68.96
2022-08-17T08:01:09.391Z,69.42
2022-08-17T08:04:59.027Z,69.97
2022-08-17T08:07:59.429Z,69.08
2022-08-17T08:11:11.162Z,69.75
2022-08-17T08:14:29.693Z,68.91
2022-08-17T08:17:36.776Z,69.91
2022-08-17T08:20:54.189Z,68.96
2022-08-17T08:23:59.354Z,68.33
2022-08-17T08:27:16.085Z,68.51
2022-08-17T08:30:21.639Z,68.71
2022-08-17T08:33:37.037Z,67.89
2022-08-17T08:37:15.892Z,66.99
2022-08-17T08:40:25.046Z,67.31
2022-08-17T08:43:29.934Z,67.35
2022-08-17T08:46:40.784Z,67.12
2022-08-17T08:50:37.377Z,66.75
2022-08-17T08:54:11.436Z,66.35
2022-08-17T08:57:34.013Z,65.64
2022-08-17T09:00:44.206Z,66.27
2022-08-17T09:04:17.897Z,66.62
2022-08-17T09:07:58.836Z,65.87
2022-08-17T09:11:03.837Z,66.27
2022-08-17T09:14:21.495Z,66.49
2022-08-17T09:17:38.380Z,65.98
2022-08-17T09:20:48.066Z,66.06
2022-08-17T09:24:15.524Z,65.45
2022-08-17T09:27:38.405Z,66.44
2022-08-17T09:30:52.465Z,66.88
2022-08-17T09:33:58.772Z,66.61
2022-08-17T09:37:28.465Z,66.97
2022-08-17T09:40:48.986Z,66.81
2022-08-17T09:43:57.207Z,67.42
2022-08-17T09:47:14.465Z,68.02
2022-08-17T09:51:03.984Z,67.34
2022-08-17T09:53:50.687Z,67.83
2022-08-17T09:57:28.670Z,66.86
2022-08-17T10:00:37.096Z,67.60
2022-08-17T10:04:07.563Z,66.53
2022-08-17T10:07:34.760Z,66.54
2022-08-17T10:10:56.494Z,66.41
2022-08-17T10:14:36.228Z,66.89
2022-08-17T10:18:04.129Z,66.99
2022-08-17T10:21:34.226Z,66.51
2022-08-17T10:25:23.121Z,66.71
2022-08-17T10:28:33.418Z,66.19
2022-08-17T10:31:45.628Z,65.72
2022-08-17T10:35:25.803Z,65.34
2022-08-17T10:38:58.702Z,65.01
2022-08-17T10:42:16.567Z,65.57
2022-08-17T10:46:10.469Z,65.97
2022-08-17T10:49:29.807Z,64.71
2022-08-17T10:52:31.831Z,65.66
2022-08-17T10:55:33.925Z,64.74
2022-08-17T10:58:45.782Z,65.79
2022-08-17T11:02:12.456Z,64.92
2022-08-17T11:05:44.063Z,64.68
2022-08-17T11:08:58.861Z,65.00
2022-08-17T11:12:15.811Z,64.95
2022-08-17T11:15:26.688Z,64.76
2022-08-17T11:19:11.105Z,64.11
2022-08-17T11:22:40.769Z,63.75
2022-08-17T11:25:49.833Z,63.50
2022-08-17T11:29:00.220Z,63.97
2022-08-17T11:32:06.652Z,63.45
2022-08-17T11:35:22.362Z,63.14
2022-08-17T11:39:07.061Z,62.86
2022-08-17T11:42:50.714Z,62.84
2022-08-17T11:45:52.721Z,62.78
2022-08-17T11:49:23.299Z,62.19
2022-08-17T11:52:47.190Z,62.47
2022-08-17T11:55:52.124Z,63.13
2022-08-17T11:58:54.457Z,63.10
2022-08-17T12:01:57.286Z,63.23
2022-08-17T12:05:14.422Z,62.69
2022-08-17T12:08:22.008Z,63.05
2022-08-17T12:11:55.383Z,62.58
2022-08-17T12:15:19.258Z,62.60
2022-08-17T12:18:35.766Z,62.38
2022-08-17T12:21:50.642Z,62.09
2022-08-17T12:25:31.540Z,61.93
2022-08-17T12:28:38.907Z,62.34
2022-08-17T12:31:45.766Z,62.02
2022-08-17T12:34:49.831Z,62.09
2022-08-17T12:37:52.167Z,61.96
2022-08-17T12:40:58.036Z,62.29
2022-08-17T12:44:04.326Z,62.01
2022-08-17T12:47:21.900Z,62.25
2022-08-17T12:50:28.558Z,62.30
2022-08-17T12:53:35.922Z,61.75
2022-08-17T12:56:38.230Z,62.46
2022-08-17T12:59:44.039Z,61.64
2022-08-17T13:02:59.650Z,61.93
2022-08-17T13:06:04.020Z,61.19
2022-08-17T13:09:15.613Z,61.68
2022-08-17T13:12:30.344Z,61.27
2022-08-17T13:15:44.824Z,61.33
2022-08-17T13:19:05.091Z,61.41
2022-08-17T13:22:11.439Z,61.04
2022-08-17T13:25:16.974Z,61.39
2022-08-17T13:28:30.618Z,60.18
2022-08-17T13:31:42.899Z,60.21
2022-08-17T13:35:14.993Z,59.43
2022-08-17T13:38:43.960Z,60.37
2022-08-17T13:41:46.941Z,60.80
2022-08-17T13:44:50.119Z,59.41
2022-08-17T13:48:29.096Z,59.87
2022-08-17T13:51:35.724Z,60.54
2022-08-17T13:54:38.393Z,60.55
2022-08-17T13:57:49.960Z,60.79
2022-08-17T14:01:34.131Z,60.47
2022-08-17T14:04:39.913Z,60.24
2022-08-17T14:07:42.022Z,59.96
2022-08-17T14:10:45.846Z,60.33
2022-08-17T14:13:47.953Z,59.64
2022-08-17T14:16:51.144Z,59.92
2022-08-17T14:19:53.237Z,59.75
2022-08-17T14:22:55.960Z,60.45
2022-08-17T14:25:58.015Z,60.40
2022-08-17T14:29:00.109Z,59.81
2022-08-17T14:32:12.025Z,59.08
2022-08-17T14:35:15.777Z,59.20
2022-08-17T14:38:18.851Z,59.92
2022-08-17T14:41:23.546Z,59.69
2022-08-17T14:44:25.746Z,60.12
2022-08-17T14:47:27.845Z,60.87
2022-08-17T14:50:29.987Z,60.40
2022-08-17T14:53:33.779Z,60.55
2022-08-17T14:56:38.057Z,61.08
2022-08-17T14:59:40.526Z,61.41
2022-08-17T15:02:46.002Z,61.52
2022-08-17T15:05:48.703Z,61.33
2022-08-17T15:08:51.467Z,60.95
2022-08-17T15:11:54.076Z,61.33
2022-08-17T15:14:57.161Z,60.97
2022-08-17T15:18:00.016Z,61.19
2022-08-17T15:21:06.445Z,61.86
2022-08-17T15:24:09.329Z,61.85
2022-08-17T15:27:11.593Z,61.47
2022-08-17T15:30:14.117Z,61.77
2022-08-17T15:33:29.504Z,62.25
2022-08-17T15:36:32.846Z,62.33
2022-08-17T15:39:35.003Z,62.53
2022-08-17T15:42:38.010Z,62.97
2022-08-17T15:45:40.893Z,62.79
2022-08-17T15:48:45.116Z,63.31
2022-08-17T15:51:49.607Z,63.18
2022-08-17T15:54:58.022Z,63.12
2022-08-17T15:58:00.918Z,63.39
2022-08-17T16:01:14.236Z,63.74
2022-08-17T16:04:30.106Z,65.54
2022-08-17T16:07:33.176Z,69.33
2022-08-17T16:10:36.236Z,69.76
2022-08-17T16:13:39.896Z,68.92
2022-08-17T16:16:42.085Z,69.01
2022-08-17T16:19:44.876Z,69.12
2022-08-17T16:22:47.218Z,68.02
2022-08-17T16:25:53.517Z,68.07
2022-08-17T16:28:57.643Z,68.62
2022-08-17T16:32:08.828Z,68.88
2022-08-17T16:35:12.603Z,68.47
2022-08-17T16:38:14.626Z,68.05
2022-08-17T16:41:37.044Z,68.95
2022-08-17T16:44:39.068Z,69.64
2022-08-17T16:47:42.082Z,69.23
2022-08-17T16:50:58.613Z,70.26
2022-08-17T16:54:07.363Z,69.88
2022-08-17T16:57:11.472Z,71.17
2022-08-17T17:00:16.337Z,71.29
2022-08-17T17:03:24.914Z,71.81
2022-08-17T17:07:12.203Z,71.43
2022-08-17T17:10:20.031Z,72.44
2022-08-17T17:13:49.768Z,71.82
2022-08-17T17:17:01.838Z,71.85
2022-08-17T17:20:18.150Z,71.70
2022-08-17T17:23:23.237Z,71.63
2022-08-17T17:27:09.917Z,72.08
2022-08-17T17:30:39.305Z,72.64
2022-08-17T17:33:55.925Z,72.13
2022-08-17T17:37:05.888Z,72.71
2022-08-17T17:40:16.831Z,72.14
2022-08-17T17:43:40.021Z,71.93
2022-08-17T17:46:48.768Z,72.62
2022-08-17T17:49:51.062Z,71.68
2022-08-17T17:53:04.445Z,72.58
2022-08-17T17:56:42.894Z,72.39
2022-08-17T18:00:28.730Z,71.99
2022-08-17T18:04:20.341Z,72.58
2022-08-17T18:07:35.079Z,72.49
2022-08-17T18:10:51.244Z,72.64
2022-08-17T18:14:21.758Z,74.07
2022-08-17T18:17:24.413Z,75.13
2022-08-17T18:20:35.979Z,74.85
2022-08-17T18:23:51.894Z,74.82
2022-08-17T18:26:56.894Z,75.43
2022-08-17T18:30:19.646Z,74.78
2022-08-17T18:33:26.496Z,75.24
2022-08-17T18:36:31.984Z,74.84
2022-08-17T18:39:35.449Z,75.32
2022-08-17T18:42:38.932Z,75.25
2022-08-17T18:45:49.814Z,74.77
2022-08-17T18:48:59.232Z,75.22
2022-08-17T18:52:07.764Z,75.72
2022-08-17T18:55:20.450Z,76.00
2022-08-17T18:58:25.704Z,75.52
2022-08-17T19:01:52.393Z,75.34
2022-08-17T19:04:59.476Z,75.73
2022-08-17T19:08:29.622Z,75.19
2022-08-17T19:11:35.918Z,75.34
2022-08-17T19:14:38.437Z,76.02
2022-08-17T19:17:53.485Z,75.83
2022-08-17T19:21:11.249Z,75.52
2022-08-17T19:24:19.819Z,76.46
2022-08-17T19:27:41.655Z,75.70
2022-08-17T19:30:48.706Z,75.68
2022-08-17T19:33:51.243Z,75.88
2022-08-17T19:37:09.140Z,76.00
2022-08-17T19:40:52.342Z,76.28
2022-08-17T19:44:07.211Z,76.81
2022-08-17T19:47:43.802Z,76.60
2022-08-17T19:51:08.118Z,75.54
2022-08-17T19:54:35.942Z,75.88
2022-08-17T19:57:59.429Z,75.55
2022-08-17T20:01:01.940Z,75.91
2022-08-17T20:04:32.410Z,75.50
2022-08-17T20:07:54.288Z,76.67
2022-08-17T20:11:09.241Z,75.50
2022-08-17T20:14:22.327Z,76.13
2022-08-17T20:17:29.652Z,76.20
2022-08-17T20:20:59.549Z,76.18
2022-08-17T20:24:21.499Z,76.24
2022-08-17T20:27:31.769Z,76.06
2022-08-17T20:30:40.227Z,76.32
2022-08-17T20:33:42.407Z,76.46
2022-08-17T20:37:04.798Z,75.47
2022-08-17T20:40:10.011Z,75.52
2022-08-17T20:43:34.158Z,75.88
2022-08-17T20:46:36.169Z,75.26
2022-08-17T20:49:44.711Z,75.25
2022-08-17T20:52:54.242Z,75.18
2022-08-17T20:55:56.364Z,74.95
2022-08-17T20:59:00.773Z,76.08
2022-08-17T21:02:12.463Z,75.06
2022-08-17T21:05:30.048Z,75.96
2022-08-17T21:08:45.714Z,75.31
2022-08-17T21:12:05.227Z,74.83
2022-08-17T21:15:43.871Z,75.03
2022-08-17T21:18:59.815Z,74.81
2022-08-17T21:22:20.190Z,75.20
2022-08-17T21:25:32.579Z,75.16
2022-08-17T21:29:00.359Z,75.41
2022-08-17T21:32:03.292Z,74.63
2022-08-17T21:35:11.292Z,75.57
2022-08-17T21:38:15.589Z,74.52
2022-08-17T21:41:28.616Z,74.76
2022-08-17T21:44:48.339Z,74.55
2022-08-17T21:48:09.787Z,75.08
2022-08-17T21:51:18.245Z,74.95
2022-08-17T21:54:40.604Z,74.37
2022-08-17T21:57:53.016Z,75.23
2022-08-17T22:01:26.506Z,75.39
2022-08-17T22:04:41.647Z,74.86
2022-08-17T22:07:50.978Z,75.39
2022-08-17T22:11:01.776Z,74.38
2022-08-17T22:14:17.498Z,75.26
2022-08-17T22:17:26.135Z,74.41
2022-08-17T22:20:28.508Z,74.63
2022-08-17T22:23:51.395Z,74.37
2022-08-17T22:27:00.346Z,74.70
2022-08-17T22:30:33.012Z,74.81
2022-08-17T22:33:48.399Z,74.61
2022-08-17T22:37:21.213Z,74.22
2022-08-17T22:40:32.636Z,75.05
2022-08-17T22:43:38.622Z,74.57
2022-08-17T22:46:51.064Z,75.20
2022-08-17T22:49:58.038Z,74.69
2022-08-17T22:53:22.603Z,74.97
2022-08-17T22:56:43.912Z,74.34
2022-08-17T22:59:55.829Z,74.71
2022-08-17T23:03:12.436Z,74.40
2022-08-17T23:06:14.730Z,75.35
2022-08-17T23:09:16.851Z,75.03
2022-08-17T23:12:26.505Z,75.51
2022-08-17T23:15:34.129Z,74.80
2022-08-17T23:18:37.435Z,75.59
2022-08-17T23:21:39.866Z,74.73
2022-08-17T23:24:45.601Z,74.39
2022-08-17T23:27:50.869Z,75.30
2022-08-17T23:30:53.283Z,74.23
2022-08-17T23:33:55.651Z,75.06
2022-08-17T23:36:57.928Z,74.78
2022-08-17T23:40:00.366Z,74.67
2022-08-17T23:43:08.490Z,74.65
2022-08-17T23:46:25.977Z,74.30
2022-08-17T23:49:28.858Z,74.44
2022-08-17T23:52:31.983Z,74.14
2022-08-17T23:55:34.866Z,74.28
2022-08-17T23:58:38.623Z,74.91
